createdAt,value
2023-04-23T00:00:56.074Z,16.7
2023-04-23T00:01:57.264Z,16.7
2023-04-23T00:02:58.444Z,16.7
2023-04-23T00:04:00.212Z,16.6
2023-04-23T00:05:02.218Z,16.6
2023-04-23T00:06:03.900Z,16.6
2023-04-23T00:07:05.104Z,16.6
2023-04-23T00:08:06.237Z,16.6
2023-04-23T00:09:07.412Z,16.6
2023-04-23T00:10:08.565Z,16.6
2023-04-23T00:11:09.739Z,16.6
2023-04-23T00:12:10.983Z,16.6
2023-04-23T00:13:12.133Z,16.6
2023-04-23T00:14:13.298Z,16.5
2023-04-23T00:15:14.463Z,16.5
2023-04-23T00:16:15.632Z,16.5
2023-04-23T00:17:16.825Z,16.5
2023-04-23T00:18:17.971Z,16.5
2023-04-23T00:19:19.407Z,16.5
2023-04-23T00:20:20.530Z,16.5
2023-04-23T00:21:21.697Z,16.5
2023-04-23T00:22:22.916Z,16.5
2023-04-23T00:23:24.099Z,16.4
2023-04-23T00:24:25.257Z,16.4
2023-04-23T00:25:26.424Z,16.4
2023-04-23T00:26:27.592Z,16.4
2023-04-23T00:27:29.428Z,16.4
2023-04-23T00:28:30.557Z,16.4
2023-04-23T00:29:31.721Z,16.4
2023-04-23T00:30:32.886Z,16.4
2023-04-23T00:31:34.108Z,16.3
2023-04-23T00:32:35.318Z,16.3
2023-04-23T00:33:36.538Z,16.3
2023-04-23T00:34:37.697Z,16.3
2023-04-23T00:35:38.899Z,16.3
2023-04-23T00:36:40.067Z,16.3
2023-04-23T00:37:41.260Z,16.3
2023-04-23T00:38:42.396Z,16.3
2023-04-23T00:39:43.569Z,16.3
2023-04-23T00:40:44.731Z,16.2
2023-04-23T00:41:45.892Z,16.2
2023-04-23T00:42:47.079Z,16.2
2023-04-23T00:43:48.223Z,16.2
2023-04-23T00:44:49.395Z,16.2
2023-04-23T00:45:50.574Z,16.2
2023-04-23T00:46:51.927Z,16.2
2023-04-23T00:47:53.139Z,16.2
2023-04-23T00:48:54.360Z,16.2
2023-04-23T00:49:55.524Z,16.1
2023-04-23T00:50:56.685Z,16.1
2023-04-23T00:51:57.850Z,16.1
2023-04-23T00:52:59.052Z,16.1
2023-04-23T00:54:00.298Z,16.1
2023-04-23T00:55:01.490Z,16.1
2023-04-23T00:56:02.656Z,16.1
2023-04-23T00:57:03.816Z,16.1
2023-04-23T00:58:05.011Z,16.1
2023-04-23T00:59:06.163Z,16.1
2023-04-23T01:00:07.348Z,16.1
2023-04-23T01:01:08.569Z,16.1
2023-04-23T01:02:09.891Z,16.1
2023-04-23T01:03:11.713Z,16
2023-04-23T01:04:13.177Z,16
2023-04-23T01:05:14.595Z,16
2023-04-23T01:06:15.755Z,16
2023-04-23T01:07:16.927Z,16
2023-04-23T01:08:18.176Z,16
2023-04-23T01:09:19.330Z,16
2023-04-23T01:10:20.500Z,16
2023-04-23T01:11:21.665Z,16
2023-04-23T01:12:22.827Z,16
2023-04-23T01:13:24.000Z,16
2023-04-23T01:14:25.158Z,15.9
2023-04-23T01:15:26.347Z,15.9
2023-04-23T01:16:27.521Z,15.9
2023-04-23T01:17:28.686Z,15.9
2023-04-23T01:18:29.926Z,15.9
2023-04-23T01:19:31.087Z,15.9
2023-04-23T01:20:32.253Z,15.9
2023-04-23T01:21:33.417Z,15.9
2023-04-23T01:22:34.604Z,15.9
2023-04-23T01:23:35.806Z,15.9
2023-04-23T01:24:36.958Z,15.8
2023-04-23T01:25:38.161Z,15.8
2023-04-23T01:26:39.331Z,15.8
2023-04-23T01:27:40.508Z,15.8
2023-04-23T01:28:41.678Z,15.8
2023-04-23T01:29:42.826Z,15.8
2023-04-23T01:30:44.053Z,15.8
2023-04-23T01:31:45.363Z,15.8
2023-04-23T01:32:46.521Z,15.8
2023-04-23T01:33:47.704Z,15.8
2023-04-23T01:34:48.857Z,15.8
2023-04-23T01:35:50.017Z,15.8
2023-04-23T01:36:51.188Z,15.8
2023-04-23T01:37:52.373Z,15.7
2023-04-23T01:38:53.823Z,15.7
2023-04-23T01:39:54.956Z,15.7
2023-04-23T01:40:56.131Z,15.7
2023-04-23T01:41:57.296Z,15.7
2023-04-23T01:42:58.449Z,15.7
2023-04-23T01:43:59.634Z,15.7
2023-04-23T01:45:00.782Z,15.7
2023-04-23T01:46:01.958Z,15.7
2023-04-23T01:47:03.589Z,15.7
2023-04-23T01:48:07.892Z,15.7
2023-04-23T01:49:09.066Z,15.7
2023-04-23T01:50:10.239Z,15.7
2023-04-23T01:51:11.390Z,15.6
2023-04-23T01:52:12.561Z,15.6
2023-04-23T01:53:13.719Z,15.6
2023-04-23T01:54:14.923Z,15.6
2023-04-23T01:55:16.064Z,15.6
2023-04-23T01:56:17.220Z,15.6
2023-04-23T01:57:18.384Z,15.6
2023-04-23T01:58:19.549Z,15.6
2023-04-23T01:59:20.729Z,15.6
2023-04-23T02:00:21.913Z,15.6
2023-04-23T02:01:23.078Z,15.6
2023-04-23T02:02:24.302Z,15.6
2023-04-23T02:03:25.636Z,15.6
2023-04-23T02:04:27.422Z,15.6
2023-04-23T02:05:28.978Z,15.5
2023-04-23T02:06:30.150Z,15.5
2023-04-23T02:07:31.319Z,15.5
2023-04-23T02:08:32.482Z,15.5
2023-04-23T02:09:33.841Z,15.5
2023-04-23T02:10:35.040Z,15.5
2023-04-23T02:11:36.215Z,15.5
2023-04-23T02:12:37.381Z,15.5
2023-04-23T02:13:38.570Z,15.5
2023-04-23T02:14:39.979Z,15.5
2023-04-23T02:15:41.921Z,15.5
2023-04-23T02:16:43.183Z,15.5
2023-04-23T02:17:44.359Z,15.5
2023-04-23T02:18:45.546Z,15.5
2023-04-23T02:19:46.700Z,15.5
2023-04-23T02:20:47.865Z,15.5
2023-04-23T02:21:49.036Z,15.5
2023-04-23T02:22:50.216Z,15.4
2023-04-23T02:23:51.372Z,15.4
2023-04-23T02:24:52.563Z,15.4
2023-04-23T02:25:53.709Z,15.4
2023-04-23T02:26:54.882Z,15.4
2023-04-23T02:27:56.036Z,15.4
2023-04-23T02:28:57.216Z,15.4
2023-04-23T02:29:58.369Z,15.4
2023-04-23T02:30:59.536Z,15.4
2023-04-23T02:32:00.722Z,15.4
2023-04-23T02:33:01.927Z,15.4
2023-04-23T02:34:03.149Z,15.3
2023-04-23T02:35:04.307Z,15.3
2023-04-23T02:36:05.469Z,15.3
2023-04-23T02:37:06.637Z,15.3
2023-04-23T02:38:07.797Z,15.3
2023-04-23T02:39:08.985Z,15.3
2023-04-23T02:40:10.211Z,15.3
2023-04-23T02:41:11.385Z,15.3
2023-04-23T02:42:12.541Z,15.3
2023-04-23T02:43:13.706Z,15.3
2023-04-23T02:44:14.882Z,15.3
2023-04-23T02:45:16.052Z,15.3
2023-04-23T02:46:17.226Z,15.3
2023-04-23T02:47:18.368Z,15.3
2023-04-23T02:48:19.542Z,15.2
2023-04-23T02:49:20.713Z,15.2
2023-04-23T02:50:21.873Z,15.2
2023-04-23T02:51:23.032Z,15.2
2023-04-23T02:52:24.197Z,15.2
2023-04-23T02:53:25.367Z,15.2
2023-04-23T02:54:26.536Z,15.2
2023-04-23T02:55:27.724Z,15.2
2023-04-23T02:56:28.933Z,15.2
2023-04-23T02:57:30.096Z,15.2
2023-04-23T02:58:31.271Z,15.2
2023-04-23T02:59:32.528Z,15.2
2023-04-23T03:00:33.676Z,15.2
2023-04-23T03:01:34.840Z,15.2
2023-04-23T03:02:36.114Z,15.2
2023-04-23T03:03:37.847Z,15.1
2023-04-23T03:04:40.021Z,15.1
2023-04-23T03:05:42.170Z,15.1
2023-04-23T03:06:43.330Z,15.1
2023-04-23T03:07:44.503Z,15.1
2023-04-23T03:08:45.668Z,15.1
2023-04-23T03:09:46.840Z,15.1
2023-04-23T03:10:48.022Z,15.1
2023-04-23T03:11:49.168Z,15.1
2023-04-23T03:12:50.331Z,15.1
2023-04-23T03:13:51.501Z,15.1
2023-04-23T03:14:52.688Z,15
2023-04-23T03:15:53.828Z,15
2023-04-23T03:16:55.018Z,15.1
2023-04-23T03:17:56.235Z,15
2023-04-23T03:18:57.415Z,15
2023-04-23T03:19:58.579Z,15
2023-04-23T03:20:59.734Z,15
2023-04-23T03:22:00.899Z,15
2023-04-23T03:23:02.063Z,15
2023-04-23T03:24:03.236Z,15
2023-04-23T03:25:04.412Z,15
2023-04-23T03:26:05.592Z,15
2023-04-23T03:27:06.735Z,15
2023-04-23T03:28:07.894Z,15
2023-04-23T03:29:09.068Z,15
2023-04-23T03:30:10.281Z,15
2023-04-23T03:31:11.446Z,14.9
2023-04-23T03:32:12.649Z,14.9
2023-04-23T03:33:13.822Z,14.9
2023-04-23T03:34:14.987Z,14.9
2023-04-23T03:35:16.150Z,14.9
2023-04-23T03:36:17.305Z,14.9
2023-04-23T03:37:18.483Z,14.9
2023-04-23T03:38:19.641Z,14.9
2023-04-23T03:39:20.818Z,14.9
2023-04-23T03:40:21.978Z,14.9
2023-04-23T03:41:23.164Z,14.9
2023-04-23T03:42:24.308Z,14.9
2023-04-23T03:43:25.476Z,14.9
2023-04-23T03:44:26.661Z,14.9
2023-04-23T03:45:27.810Z,14.8
2023-04-23T03:46:28.988Z,14.8
2023-04-23T03:47:30.286Z,14.8
2023-04-23T03:48:31.487Z,14.8
2023-04-23T03:49:32.707Z,14.8
2023-04-23T03:50:33.856Z,14.8
2023-04-23T03:51:35.025Z,14.8
2023-04-23T03:52:36.191Z,14.8
2023-04-23T03:53:37.355Z,14.8
2023-04-23T03:54:38.662Z,14.8
2023-04-23T03:55:40.483Z,14.8
2023-04-23T03:56:41.672Z,14.8
2023-04-23T03:57:42.812Z,14.8
2023-04-23T03:58:43.977Z,14.7
2023-04-23T03:59:45.162Z,14.7
2023-04-23T04:00:46.307Z,14.7
2023-04-23T04:01:47.477Z,14.7
2023-04-23T04:02:48.726Z,14.7
2023-04-23T04:03:50.324Z,14.7
2023-04-23T04:04:52.349Z,14.7
2023-04-23T04:05:54.268Z,14.7
2023-04-23T04:06:55.637Z,14.7
2023-04-23T04:07:56.806Z,14.7
2023-04-23T04:08:57.964Z,14.7
2023-04-23T04:09:59.151Z,14.7
2023-04-23T04:11:00.302Z,14.7
2023-04-23T04:12:01.516Z,14.7
2023-04-23T04:13:02.653Z,14.7
2023-04-23T04:14:03.809Z,14.7
2023-04-23T04:15:04.995Z,14.7
2023-04-23T04:16:06.181Z,14.6
2023-04-23T04:17:07.359Z,14.6
2023-04-23T04:18:08.523Z,14.6
2023-04-23T04:19:09.693Z,14.6
2023-04-23T04:20:10.861Z,14.6
2023-04-23T04:21:12.046Z,14.6
2023-04-23T04:22:13.211Z,14.6
2023-04-23T04:23:14.386Z,14.6
2023-04-23T04:24:15.581Z,14.6
2023-04-23T04:25:16.747Z,14.6
2023-04-23T04:26:17.903Z,14.6
2023-04-23T04:27:19.098Z,14.6
2023-04-23T04:28:20.238Z,14.6
2023-04-23T04:29:21.430Z,14.6
2023-04-23T04:30:22.580Z,14.6
2023-04-23T04:31:23.798Z,14.6
2023-04-23T04:32:24.966Z,14.6
2023-04-23T04:33:26.184Z,14.6
2023-04-23T04:34:27.314Z,14.6
2023-04-23T04:35:28.487Z,14.6
2023-04-23T04:36:29.663Z,14.6
2023-04-23T04:37:30.808Z,14.6
2023-04-23T04:38:31.980Z,14.5
2023-04-23T04:39:33.141Z,14.5
2023-04-23T04:40:34.318Z,14.5
2023-04-23T04:41:35.475Z,14.5
2023-04-23T04:42:36.664Z,14.5
2023-04-23T04:43:37.825Z,14.5
2023-04-23T04:44:39.078Z,14.5
2023-04-23T04:45:40.936Z,14.5
2023-04-23T04:46:42.148Z,14.5
2023-04-23T04:47:43.525Z,14.5
2023-04-23T04:48:44.670Z,14.5
2023-04-23T04:49:45.834Z,14.5
2023-04-23T04:50:47.013Z,14.5
2023-04-23T04:51:48.170Z,14.5
2023-04-23T04:52:49.357Z,14.5
2023-04-23T04:53:50.522Z,14.5
2023-04-23T04:54:51.690Z,14.5
2023-04-23T04:55:52.857Z,14.5
2023-04-23T04:56:54.025Z,14.5
2023-04-23T04:57:55.208Z,14.5
2023-04-23T04:58:56.435Z,14.4
2023-04-23T04:59:57.609Z,14.4
2023-04-23T05:00:58.794Z,14.4
2023-04-23T05:02:00.027Z,14.4
2023-04-23T05:03:01.353Z,14.4
2023-04-23T05:04:03.244Z,14.4
2023-04-23T05:05:05.437Z,14.4
2023-04-23T05:06:06.614Z,14.4
2023-04-23T05:07:07.765Z,14.4
2023-04-23T05:08:08.928Z,14.4
2023-04-23T05:09:10.106Z,14.4
2023-04-23T05:10:11.267Z,14.4
2023-04-23T05:11:12.441Z,14.4
2023-04-23T05:12:13.604Z,14.4
2023-04-23T05:13:14.798Z,14.4
2023-04-23T05:14:15.978Z,14.4
2023-04-23T05:15:17.105Z,14.4
2023-04-23T05:16:18.292Z,14.4
2023-04-23T05:17:19.514Z,14.4
2023-04-23T05:18:20.681Z,14.4
2023-04-23T05:19:21.851Z,14.4
2023-04-23T05:20:23.017Z,14.4
2023-04-23T05:21:24.177Z,14.4
2023-04-23T05:22:25.341Z,14.4
2023-04-23T05:23:26.527Z,14.3
2023-04-23T05:24:27.673Z,14.3
2023-04-23T05:25:28.867Z,14.3
2023-04-23T05:26:30.003Z,14.3
2023-04-23T05:27:31.238Z,14.3
2023-04-23T05:28:32.413Z,14.3
2023-04-23T05:29:33.559Z,14.3
2023-04-23T05:30:34.749Z,14.3
2023-04-23T05:31:35.906Z,14.3
2023-04-23T05:32:37.100Z,14.3
2023-04-23T05:33:49.079Z,14.3
2023-04-23T05:34:51.889Z,14.3
2023-04-23T05:35:53.061Z,14.3
2023-04-23T05:36:54.224Z,14.3
2023-04-23T05:37:55.386Z,14.3
2023-04-23T05:38:56.545Z,14.3
2023-04-23T05:39:57.709Z,14.3
2023-04-23T05:40:58.892Z,14.3
2023-04-23T05:42:00.046Z,14.3
2023-04-23T05:43:01.214Z,14.3
2023-04-23T05:44:02.395Z,14.3
2023-04-23T05:45:03.540Z,14.3
2023-04-23T05:46:05.540Z,14.3
2023-04-23T05:47:06.690Z,14.3
2023-04-23T05:48:07.856Z,14.3
2023-04-23T05:49:09.020Z,14.3
2023-04-23T05:50:10.194Z,14.3
2023-04-23T05:51:11.379Z,14.3
2023-04-23T05:52:12.530Z,14.3
2023-04-23T05:53:13.687Z,14.3
2023-04-23T05:54:14.871Z,14.2
2023-04-23T05:55:16.016Z,14.3
2023-04-23T05:56:17.194Z,14.3
2023-04-23T05:57:18.350Z,14.3
2023-04-23T05:58:19.515Z,14.2
2023-04-23T05:59:20.718Z,14.3
2023-04-23T06:00:21.850Z,14.3
2023-04-23T06:01:23.030Z,14.3
2023-04-23T06:02:25.136Z,14.3
2023-04-23T06:03:27.051Z,14.3
2023-04-23T06:04:29.309Z,14.3
2023-04-23T06:05:31.469Z,14.3
2023-04-23T06:06:33.038Z,14.3
2023-04-23T06:07:34.183Z,14.3
2023-04-23T06:08:35.353Z,14.3
2023-04-23T06:09:36.514Z,14.3
2023-04-23T06:10:37.685Z,14.3
2023-04-23T06:11:38.859Z,14.3
2023-04-23T06:12:40.013Z,14.3
2023-04-23T06:13:43.607Z,14.3
2023-04-23T06:14:45.065Z,14.3
2023-04-23T06:15:46.217Z,14.3
2023-04-23T06:16:47.474Z,14.3
2023-04-23T06:17:48.627Z,14.3
2023-04-23T06:18:49.800Z,14.3
2023-04-23T06:19:50.965Z,14.3
2023-04-23T06:20:52.149Z,14.3
2023-04-23T06:21:53.297Z,14.3
2023-04-23T06:22:54.470Z,14.3
2023-04-23T06:23:55.648Z,14.3
2023-04-23T06:24:56.796Z,14.3
2023-04-23T06:25:57.983Z,14.3
2023-04-23T06:26:59.133Z,14.3
2023-04-23T06:28:00.301Z,14.2
2023-04-23T06:29:01.461Z,14.2
2023-04-23T06:30:02.652Z,14.2
2023-04-23T06:31:03.849Z,14.3
2023-04-23T06:32:05.057Z,14.2
2023-04-23T06:33:06.224Z,14.3
2023-04-23T06:34:07.396Z,14.3
2023-04-23T06:35:08.879Z,14.3
2023-04-23T06:36:10.394Z,14.3
2023-04-23T06:37:11.555Z,14.3
2023-04-23T06:38:12.722Z,14.3
2023-04-23T06:39:13.886Z,14.3
2023-04-23T06:40:15.054Z,14.4
2023-04-23T06:41:16.238Z,14.4
2023-04-23T06:42:17.391Z,14.4
2023-04-23T06:43:18.552Z,14.4
2023-04-23T06:44:19.723Z,14.4
2023-04-23T06:45:20.916Z,14.4
2023-04-23T06:46:22.158Z,14.4
2023-04-23T06:47:23.342Z,14.5
2023-04-23T06:48:24.506Z,14.5
2023-04-23T06:49:25.678Z,14.5
2023-04-23T06:50:26.893Z,14.5
2023-04-23T06:51:28.057Z,14.6
2023-04-23T06:52:29.223Z,14.6
2023-04-23T06:53:30.376Z,14.7
2023-04-23T06:54:31.543Z,14.7
2023-04-23T06:55:32.701Z,14.8
2023-04-23T06:56:33.885Z,14.8
2023-04-23T06:57:35.663Z,14.9
2023-04-23T06:58:36.858Z,14.9
2023-04-23T06:59:38.024Z,15
2023-04-23T07:00:39.258Z,15.1
2023-04-23T07:01:40.470Z,15.2
2023-04-23T07:02:41.677Z,15.2
2023-04-23T07:03:45.031Z,15.3
2023-04-23T07:04:46.912Z,15.3
2023-04-23T07:05:48.800Z,15.4
2023-04-23T07:06:49.976Z,15.4
2023-04-23T07:07:51.129Z,15.4
2023-04-23T07:08:52.307Z,15.4
2023-04-23T07:09:53.462Z,15.4
2023-04-23T07:10:54.634Z,15.4
2023-04-23T07:11:56.308Z,15.4
2023-04-23T07:12:57.468Z,15.4
2023-04-23T07:13:58.618Z,15.4
2023-04-23T07:14:59.806Z,15.4
2023-04-23T07:16:01.016Z,15.4
2023-04-23T07:17:02.234Z,15.4
2023-04-23T07:18:03.654Z,15.4
2023-04-23T07:19:04.831Z,15.4
2023-04-23T07:20:05.997Z,15.5
2023-04-23T07:21:07.331Z,15.5
2023-04-23T07:22:08.497Z,15.5
2023-04-23T07:23:09.653Z,15.5
2023-04-23T07:24:10.823Z,15.5
2023-04-23T07:25:11.997Z,15.5
2023-04-23T07:26:13.152Z,15.5
2023-04-23T07:27:14.345Z,15.5
2023-04-23T07:28:15.487Z,15.5
2023-04-23T07:29:16.657Z,15.5
2023-04-23T07:30:17.822Z,15.6
2023-04-23T07:31:19.010Z,15.6
2023-04-23T07:32:20.166Z,15.6
2023-04-23T07:33:21.379Z,15.7
2023-04-23T07:34:22.954Z,15.7
2023-04-23T07:35:24.098Z,15.8
2023-04-23T07:36:25.296Z,15.8
2023-04-23T07:37:26.442Z,15.8
2023-04-23T07:38:27.592Z,15.8
2023-04-23T07:39:30.811Z,15.8
2023-04-23T07:40:31.984Z,15.8
2023-04-23T07:41:33.165Z,15.8
2023-04-23T07:42:34.313Z,15.9
2023-04-23T07:43:35.476Z,15.9
2023-04-23T07:44:36.640Z,15.9
2023-04-23T07:45:37.810Z,15.9
2023-04-23T07:46:39.125Z,15.9
2023-04-23T07:47:40.267Z,16
2023-04-23T07:48:41.425Z,16
2023-04-23T07:49:42.825Z,16
2023-04-23T07:50:45.218Z,16.1
2023-04-23T07:51:46.395Z,16.1
2023-04-23T07:52:47.554Z,16.2
2023-04-23T07:53:48.715Z,16.2
2023-04-23T07:54:49.876Z,16.3
2023-04-23T07:55:51.050Z,16.5
2023-04-23T07:56:52.220Z,16.6
2023-04-23T07:57:53.378Z,16.7
2023-04-23T07:58:54.556Z,17
2023-04-23T07:59:55.745Z,17.2
2023-04-23T08:00:56.876Z,17.4
2023-04-23T08:01:58.089Z,17.7
2023-04-23T08:02:59.324Z,18.2
2023-04-23T08:04:01.147Z,18.3
2023-04-23T08:05:03.341Z,18.6
2023-04-23T08:06:04.887Z,18.9
2023-04-23T08:07:06.064Z,19
2023-04-23T08:08:07.216Z,19.9
2023-04-23T08:09:08.384Z,19.9
2023-04-23T08:10:09.543Z,20
2023-04-23T08:11:10.708Z,20.9
2023-04-23T08:12:11.884Z,20.7
2023-04-23T08:13:13.049Z,20.9
2023-04-23T08:14:14.207Z,21.2
2023-04-23T08:15:15.397Z,21.6
2023-04-23T08:16:16.575Z,22.7
2023-04-23T08:17:17.788Z,22.7
2023-04-23T08:18:18.920Z,23.7
2023-04-23T08:19:20.088Z,25.1
2023-04-23T08:20:21.261Z,26.3
2023-04-23T08:21:22.439Z,27
2023-04-23T08:22:23.615Z,26.9
2023-04-23T08:23:24.757Z,27.9
2023-04-23T08:24:25.918Z,28.1
2023-04-23T08:25:27.119Z,29.2
2023-04-23T08:26:28.324Z,29.9
2023-04-23T08:27:29.515Z,29.7
2023-04-23T08:28:30.663Z,29.7
2023-04-23T08:29:31.875Z,30.1
2023-04-23T08:30:33.035Z,31
2023-04-23T08:31:34.227Z,31.5
2023-04-23T08:32:35.503Z,32.1
2023-04-23T08:33:36.750Z,32.5
2023-04-23T08:34:37.885Z,32.8
2023-04-23T08:35:39.061Z,33
2023-04-23T08:36:40.294Z,33.4
2023-04-23T08:37:41.479Z,33.8
2023-04-23T08:38:42.633Z,34.3
2023-04-23T08:39:44.025Z,34.7
2023-04-23T08:40:46.404Z,35.2
2023-04-23T08:41:47.614Z,35.7
2023-04-23T08:42:48.884Z,36.2
2023-04-23T08:43:50.006Z,36.5
2023-04-23T08:44:51.190Z,36.9
2023-04-23T08:45:52.356Z,37.2
2023-04-23T08:46:53.556Z,37.6
2023-04-23T08:47:54.832Z,38.1
2023-04-23T08:48:56.057Z,38.1
2023-04-23T08:49:57.267Z,38.6
2023-04-23T08:50:58.393Z,39.1
2023-04-23T08:51:59.559Z,39.5
2023-04-23T08:53:00.728Z,39.9
2023-04-23T08:54:01.885Z,40.2
2023-04-23T08:55:03.054Z,40.5
2023-04-23T08:56:04.220Z,40.8
2023-04-23T08:57:05.389Z,41
2023-04-23T08:58:06.577Z,41.2
2023-04-23T08:59:07.722Z,41.5
2023-04-23T09:00:08.889Z,41.8
2023-04-23T09:01:10.069Z,42.1
2023-04-23T09:02:11.322Z,42.4
2023-04-23T09:03:12.822Z,42.6
2023-04-23T09:04:14.610Z,42.8
2023-04-23T09:05:15.780Z,43
2023-04-23T09:06:16.939Z,43.3
2023-04-23T09:07:18.113Z,43.5
2023-04-23T09:08:19.293Z,43.8
2023-04-23T09:09:20.438Z,44.1
2023-04-23T09:10:21.661Z,44.4
2023-04-23T09:11:22.839Z,44.6
2023-04-23T09:12:24.016Z,44.8
2023-04-23T09:13:25.185Z,45.1
2023-04-23T09:14:26.344Z,45.1
2023-04-23T09:15:27.540Z,45.5
2023-04-23T09:16:28.716Z,45.7
2023-04-23T09:17:29.925Z,45.9
2023-04-23T09:18:31.141Z,46.1
2023-04-23T09:19:32.285Z,46.3
2023-04-23T09:20:33.455Z,46.7
2023-04-23T09:21:34.647Z,47.1
2023-04-23T09:22:35.780Z,47.3
2023-04-23T09:23:36.958Z,47.6
2023-04-23T09:24:38.113Z,47.9
2023-04-23T09:25:39.302Z,48
2023-04-23T09:26:40.468Z,48.1
2023-04-23T09:27:41.643Z,47.7
2023-04-23T09:28:42.806Z,47.4
2023-04-23T09:29:44.026Z,47.9
2023-04-23T09:30:45.210Z,48.2
2023-04-23T09:31:46.373Z,48.3
2023-04-23T09:32:47.694Z,48.5
2023-04-23T09:33:49.317Z,48.5
2023-04-23T09:34:50.454Z,48.5
2023-04-23T09:35:51.620Z,48.5
2023-04-23T09:36:52.783Z,48.5
2023-04-23T09:37:54.016Z,48.5
2023-04-23T09:38:55.191Z,48.6
2023-04-23T09:39:56.349Z,48.6
2023-04-23T09:40:57.519Z,48.6
2023-04-23T09:41:58.684Z,48.8
2023-04-23T09:42:59.852Z,48.9
2023-04-23T09:44:01.028Z,49
2023-04-23T09:45:02.180Z,49
2023-04-23T09:46:03.420Z,49.1
2023-04-23T09:47:04.666Z,49.2
2023-04-23T09:48:05.807Z,49.3
2023-04-23T09:49:07.114Z,49.4
2023-04-23T09:50:08.327Z,49.6
2023-04-23T09:51:09.492Z,49.8
2023-04-23T09:52:10.660Z,49.9
2023-04-23T09:53:11.826Z,50
2023-04-23T09:54:12.994Z,50.1
2023-04-23T09:55:14.165Z,50.2
2023-04-23T09:56:15.324Z,50.3
2023-04-23T09:57:16.488Z,50.2
2023-04-23T09:58:17.669Z,50.2
2023-04-23T09:59:18.820Z,50.1
2023-04-23T10:00:20.547Z,50.2
2023-04-23T10:01:23.542Z,50.3
2023-04-23T10:02:24.833Z,50.5
2023-04-23T10:03:26.503Z,50.8
2023-04-23T10:04:28.320Z,51.1
2023-04-23T10:07:17.134Z,52
2023-04-23T10:08:21.287Z,52.3
2023-04-23T10:09:22.444Z,52.5
2023-04-23T10:10:23.609Z,52.7
2023-04-23T10:11:24.809Z,52.8
2023-04-23T10:13:55.454Z,53
2023-04-23T10:14:56.607Z,53.2
2023-04-23T10:16:04.651Z,53.3
2023-04-23T10:17:27.270Z,53.5
2023-04-23T10:18:28.512Z,53.7
2023-04-23T10:19:29.698Z,53.8
2023-04-23T10:20:30.876Z,54.1
2023-04-23T10:21:36.610Z,54.4
2023-04-23T10:23:02.780Z,54.6
2023-04-23T10:24:03.969Z,54.7
2023-04-23T10:25:05.106Z,54.8
2023-04-23T10:26:06.274Z,55
2023-04-23T10:28:33.940Z,55.2
2023-04-23T10:29:35.116Z,55.3
2023-04-23T10:30:36.277Z,55.4
2023-04-23T10:31:37.484Z,55.5
2023-04-23T10:32:38.934Z,55.5
2023-04-23T10:33:49.739Z,55.6
2023-04-23T10:35:00.380Z,55.6
2023-04-23T10:36:01.560Z,55.5
2023-04-23T10:37:05.572Z,55.4
2023-04-23T10:38:06.727Z,55.4
2023-04-23T10:39:07.991Z,55.6
2023-04-23T10:40:10.343Z,55.7
2023-04-23T10:41:11.545Z,55.8
2023-04-23T10:42:12.722Z,55.8
2023-04-23T10:43:13.864Z,55.8
2023-04-23T10:44:16.005Z,55.9
2023-04-23T10:45:33.488Z,55.9
2023-04-23T10:46:37.871Z,55.9
2023-04-23T10:47:40.460Z,55.9
2023-04-23T10:48:43.854Z,56
2023-04-23T10:49:45.011Z,56.2
2023-04-23T10:51:02.255Z,56.4
2023-04-23T10:53:18.254Z,56.6
2023-04-23T10:54:19.395Z,56.7
2023-04-23T10:55:20.721Z,56.8
2023-04-23T10:56:21.915Z,56.9
2023-04-23T10:57:23.052Z,57
2023-04-23T10:58:24.220Z,57
2023-04-23T10:59:25.388Z,57
2023-04-23T11:00:26.551Z,57
2023-04-23T11:01:27.758Z,57.1
2023-04-23T11:02:29.293Z,57.1
2023-04-23T11:03:30.944Z,57
2023-04-23T11:04:33.272Z,57
2023-04-23T11:05:35.131Z,57
2023-04-23T11:06:36.302Z,57.2
2023-04-23T11:07:37.454Z,57.3
2023-04-23T11:08:38.655Z,57.5
2023-04-23T11:09:39.983Z,57.8
2023-04-23T11:10:42.331Z,57.8
2023-04-23T11:11:43.506Z,57.7
2023-04-23T11:12:44.671Z,57.7
2023-04-23T11:13:45.829Z,56.4
2023-04-23T11:14:46.995Z,57.2
2023-04-23T11:15:48.160Z,57.2
2023-04-23T11:16:49.391Z,57.2
2023-04-23T11:17:50.790Z,57
2023-04-23T11:18:51.963Z,53.4
2023-04-23T11:19:53.129Z,50.5
2023-04-23T11:20:54.300Z,48.6
2023-04-23T11:21:55.483Z,47
2023-04-23T11:22:56.636Z,45.6
2023-04-23T11:23:57.851Z,44.4
2023-04-23T11:24:58.990Z,43.3
2023-04-23T11:26:00.189Z,42.3
2023-04-23T11:27:01.437Z,41.4
2023-04-23T11:28:02.599Z,40.7
2023-04-23T11:29:03.762Z,40.7
2023-04-23T11:30:04.930Z,39.8
2023-04-23T11:31:06.095Z,39.2
2023-04-23T11:32:07.287Z,38.6
2023-04-23T11:33:08.463Z,38.1
2023-04-23T11:34:09.615Z,37.5
2023-04-23T11:35:12.604Z,37
2023-04-23T11:36:14.892Z,36.4
2023-04-23T11:37:16.069Z,35.8
2023-04-23T11:38:17.226Z,35.3
2023-04-23T11:39:18.420Z,34.8
2023-04-23T11:40:19.601Z,34.4
2023-04-23T11:41:20.879Z,34.1
2023-04-23T11:42:22.073Z,33.8
2023-04-23T11:43:23.202Z,35.4
2023-04-23T11:44:24.373Z,38.2
2023-04-23T11:45:25.534Z,38.1
2023-04-23T11:46:26.828Z,40.1
2023-04-23T11:47:28.314Z,41.1
2023-04-23T11:48:29.461Z,39
2023-04-23T11:49:30.609Z,37.6
2023-04-23T11:50:31.795Z,36.7
2023-04-23T11:51:32.946Z,36
2023-04-23T11:52:34.110Z,35.4
2023-04-23T11:53:35.277Z,34.8
2023-04-23T11:59:26.035Z,30.8
2023-04-23T12:00:32.346Z,30.3
2023-04-23T12:01:33.553Z,29.9
2023-04-23T12:02:35.025Z,29.4
2023-04-23T12:03:36.725Z,29
2023-04-23T12:04:40.437Z,28.7
2023-04-23T12:05:42.529Z,28.3
2023-04-23T12:06:43.790Z,28
2023-04-23T12:07:44.972Z,27.6
2023-04-23T12:08:46.119Z,27.4
2023-04-23T12:09:47.305Z,27.1
2023-04-23T12:10:48.466Z,26.8
2023-04-23T12:11:49.638Z,26.6
2023-04-23T12:12:50.832Z,26.4
2023-04-23T12:13:51.971Z,26.2
2023-04-23T12:14:53.164Z,26
2023-04-23T12:15:54.325Z,25.8
2023-04-23T12:16:55.479Z,25.7
2023-04-23T12:17:56.755Z,25.5
2023-04-23T12:18:58.024Z,25.4
2023-04-23T12:19:59.189Z,25.3
2023-04-23T12:21:00.352Z,25.2
2023-04-23T12:22:01.622Z,25.1
2023-04-23T12:23:02.776Z,25
2023-04-23T12:24:03.935Z,25
2023-04-23T12:25:05.098Z,25
2023-04-23T12:26:06.262Z,25
2023-04-23T12:27:07.430Z,25.4
2023-04-23T12:28:08.617Z,25.2
2023-04-23T12:29:12.197Z,25.1
2023-04-23T12:30:13.436Z,25.1
2023-04-23T12:31:14.621Z,25
2023-04-23T12:32:15.823Z,24.9
2023-04-23T12:33:17.012Z,24.8
2023-04-23T12:34:18.152Z,24.8
2023-04-23T12:35:19.321Z,24.7
2023-04-23T12:36:20.486Z,24.7
2023-04-23T12:37:24.763Z,24.7
2023-04-23T12:38:25.930Z,25.1
2023-04-23T12:39:27.085Z,25.4
2023-04-23T12:40:28.260Z,25.7
2023-04-23T12:41:30.420Z,26
2023-04-23T12:42:34.340Z,26.2
2023-04-23T12:43:35.521Z,26.4
2023-04-23T12:44:38.813Z,26.6
2023-04-23T12:45:40.033Z,26.8
2023-04-23T12:46:41.354Z,26.9
2023-04-23T12:47:42.661Z,27.1
2023-04-23T12:48:43.814Z,27.2
2023-04-23T12:49:45.121Z,27.3
2023-04-23T12:50:46.689Z,27.4
2023-04-23T12:51:47.851Z,27.5
2023-04-23T12:52:49.023Z,27.6
2023-04-23T12:53:50.215Z,27.7
2023-04-23T12:54:51.399Z,27.9
2023-04-23T12:55:52.800Z,28
2023-04-23T12:56:53.995Z,28.1
2023-04-23T12:57:55.143Z,28.3
2023-04-23T12:58:56.322Z,28.2
2023-04-23T12:59:57.478Z,27.9
2023-04-23T13:00:58.693Z,27.8
2023-04-23T13:01:59.951Z,27.6
2023-04-23T13:03:01.263Z,27.5
2023-04-23T13:04:03.447Z,27.4
2023-04-23T13:05:07.802Z,27.5
2023-04-23T13:06:09.079Z,27.8
2023-04-23T13:07:10.231Z,27.7
2023-04-23T13:08:11.401Z,27.9
2023-04-23T13:09:12.637Z,28.1
2023-04-23T13:10:14.009Z,28.2
2023-04-23T13:11:15.175Z,28.3
2023-04-23T13:12:16.343Z,28.3
2023-04-23T13:13:17.536Z,28.3
2023-04-23T13:14:18.822Z,28.1
2023-04-23T13:15:20.426Z,28
2023-04-23T13:16:21.799Z,27.9
2023-04-23T13:17:23.141Z,27.9
2023-04-23T13:18:24.427Z,28.1
2023-04-23T13:19:26.020Z,28.3
2023-04-23T13:20:27.226Z,28.4
2023-04-23T13:21:28.419Z,28.4
2023-04-23T13:22:29.748Z,28.5
2023-04-23T13:23:30.933Z,28.5
2023-04-23T13:24:32.120Z,28.6
2023-04-23T13:25:33.256Z,28.6
2023-04-23T13:26:34.448Z,28.7
2023-04-23T13:27:35.610Z,28.7
2023-04-23T13:28:36.775Z,28.6
2023-04-23T13:29:37.977Z,28.6
2023-04-23T13:30:39.138Z,28.5
2023-04-23T13:31:40.338Z,28.4
2023-04-23T13:32:41.614Z,28.3
2023-04-23T13:33:42.818Z,28.1
2023-04-23T13:34:43.981Z,28
2023-04-23T13:35:45.125Z,27.8
2023-04-23T13:36:46.309Z,27.6
2023-04-23T13:37:47.454Z,27.5
2023-04-23T13:38:48.625Z,27.4
2023-04-23T13:39:49.835Z,27.3
2023-04-23T13:40:50.975Z,27.3
2023-04-23T13:42:02.692Z,27.3
2023-04-23T13:43:11.097Z,27.2
2023-04-23T13:44:12.249Z,27.1
2023-04-23T13:45:14.714Z,27
2023-04-23T13:46:16.038Z,26.8
2023-04-23T13:47:19.423Z,26.7
2023-04-23T13:48:20.555Z,26.7
2023-04-23T13:49:21.752Z,26.6
2023-04-23T13:50:22.912Z,26.5
2023-04-23T13:51:34.475Z,26.5
2023-04-23T13:52:37.305Z,26.4
2023-04-23T13:53:38.473Z,26.4
2023-04-23T13:54:39.639Z,26.3